createdAt,value
2019-02-11T00:00:34.515Z,99546.64
2019-02-11T00:03:03.079Z,99551.66
2019-02-11T00:05:31.886Z,99559.93
2019-02-11T00:08:00.458Z,99564.16
2019-02-11T00:10:29.082Z,99556.83
2019-02-11T00:12:57.652Z,99562.56
2019-02-11T00:15:26.171Z,99577.12
2019-02-11T00:17:54.821Z,99580.29
2019-02-11T00:20:23.366Z,99571.38
2019-02-11T00:22:52.131Z,99575.68
2019-02-11T00:25:20.541Z,99580.72
2019-02-11T00:27:49.028Z,99591.85
2019-02-11T00:30:17.612Z,99601.64
2019-02-11T00:32:46.211Z,99607.04
2019-02-11T00:35:14.891Z,99615.47
2019-02-11T00:37:43.432Z,99619.16
2019-02-11T00:40:11.964Z,99633.63
2019-02-11T00:42:40.536Z,99630.73
2019-02-11T00:45:09.925Z,99629.70
2019-02-11T00:47:38.576Z,99641.66
2019-02-11T00:50:10.479Z,99644.06
2019-02-11T00:52:39.134Z,99649.91
2019-02-11T00:55:07.718Z,99650.47
2019-02-11T00:57:36.127Z,99663.50
2019-02-11T01:00:07.079Z,99663.55
2019-02-11T01:02:35.651Z,99670.08
2019-02-11T01:05:05.997Z,99672.41
2019-02-11T01:07:34.560Z,99683.72
2019-02-11T01:10:03.162Z,99688.20
2019-02-11T01:12:31.727Z,99694.95
2019-02-11T01:15:00.308Z,99691.27
2019-02-11T01:17:29.100Z,99705.94
2019-02-11T01:19:57.626Z,99703.94
2019-02-11T01:22:38.422Z,99710.38
2019-02-11T01:25:08.713Z,99718.14
2019-02-11T01:27:37.586Z,99727.28
2019-02-11T01:30:11.609Z,99729.48
2019-02-11T01:32:40.165Z,99729.64
2019-02-11T01:35:08.790Z,99733.78
2019-02-11T01:37:37.375Z,99734.34
2019-02-11T01:40:09.508Z,99734.91
2019-02-11T01:42:38.149Z,99737.39
2019-02-11T01:45:09.986Z,99743.63
2019-02-11T01:47:38.608Z,99747.50
2019-02-11T01:50:10.554Z,99753.66
2019-02-11T01:52:39.229Z,99762.06
2019-02-11T01:55:07.888Z,99768.77
2019-02-11T01:57:36.408Z,99763.28
2019-02-11T02:00:07.637Z,99767.33
2019-02-11T02:02:35.968Z,99779.86
2019-02-11T02:05:05.908Z,99783.75
2019-02-11T02:07:34.405Z,99775.16
2019-02-11T02:10:05.431Z,99779.01
2019-02-11T02:12:34.105Z,99785.90
2019-02-11T02:15:02.669Z,99782.70
2019-02-11T02:17:31.304Z,99786.14
2019-02-11T02:19:59.996Z,99788.77
2019-02-11T02:22:28.620Z,99789.19
2019-02-11T02:24:57.293Z,99798.48
2019-02-11T02:27:25.896Z,99800.00
2019-02-11T02:29:54.650Z,99799.71
2019-02-11T02:32:23.336Z,99810.53
2019-02-11T02:34:51.971Z,99813.07
2019-02-11T02:37:20.466Z,99818.45
2019-02-11T02:39:49.181Z,99821.70
2019-02-11T02:42:17.803Z,99825.70
2019-02-11T02:44:46.441Z,99833.28
2019-02-11T02:47:15.011Z,99826.45
2019-02-11T02:49:43.627Z,99833.26
2019-02-11T02:52:12.292Z,99837.46
2019-02-11T02:54:40.846Z,99838.52
2019-02-11T02:57:09.470Z,99843.30
2019-02-11T02:59:38.182Z,99854.56
2019-02-11T03:02:06.794Z,99854.50
2019-02-11T03:04:35.774Z,99865.00
2019-02-11T03:07:04.430Z,99868.85
2019-02-11T03:09:34.197Z,99869.14
2019-02-11T03:12:02.613Z,99869.52
2019-02-11T03:14:31.331Z,99877.86
2019-02-11T03:17:00.020Z,99879.16
2019-02-11T03:19:28.662Z,99883.48
2019-02-11T03:21:57.385Z,99886.72
2019-02-11T03:24:25.944Z,99892.66
2019-02-11T03:26:54.331Z,99899.31
2019-02-11T03:29:22.745Z,99900.71
2019-02-11T03:31:51.426Z,99904.95
2019-02-11T03:34:20.416Z,99913.19
2019-02-11T03:36:49.307Z,99912.55
2019-02-11T03:39:18.467Z,99925.61
2019-02-11T03:41:47.102Z,99936.52
2019-02-11T03:44:15.855Z,99942.56
2019-02-11T03:46:44.771Z,99959.94
2019-02-11T03:49:13.454Z,99958.14
2019-02-11T03:51:42.140Z,99963.77
2019-02-11T03:54:10.872Z,99968.77
2019-02-11T03:56:39.434Z,99976.09
2019-02-11T03:59:07.848Z,99979.09
2019-02-11T04:01:36.439Z,99981.88
2019-02-11T04:04:05.144Z,99994.19
2019-02-11T04:06:33.674Z,99987.69
2019-02-11T04:09:02.464Z,99998.91
2019-02-11T04:11:31.028Z,99997.59
2019-02-11T04:13:59.764Z,100005.73
2019-02-11T04:16:28.468Z,100019.32
2019-02-11T04:18:57.076Z,100020.56
2019-02-11T04:21:25.944Z,100031.69
2019-02-11T04:23:54.322Z,100043.17
2019-02-11T04:26:22.821Z,100053.88
2019-02-11T04:28:51.735Z,100059.67
2019-02-11T04:31:20.367Z,100073.44
2019-02-11T04:33:49.234Z,100082.56
2019-02-11T04:36:17.943Z,100086.84
2019-02-11T04:38:46.588Z,100095.49
2019-02-11T04:41:17.913Z,100104.14
2019-02-11T04:43:46.648Z,100108.20
2019-02-11T04:46:15.453Z,100112.63
2019-02-11T04:48:44.209Z,100122.47
2019-02-11T04:51:12.788Z,100130.53
2019-02-11T04:53:41.715Z,100133.52
2019-02-11T04:56:10.369Z,100139.70
2019-02-11T04:58:39.212Z,100135.06
2019-02-11T05:01:08.099Z,100144.52
2019-02-11T05:03:36.787Z,100142.48
2019-02-11T05:06:05.879Z,100150.51
2019-02-11T05:08:34.445Z,100165.20
2019-02-11T05:11:03.275Z,100162.20
2019-02-11T05:13:32.093Z,100165.94
2019-02-11T05:16:00.912Z,100159.44
2019-02-11T05:18:29.620Z,100161.02
2019-02-11T05:20:58.500Z,100164.12
2019-02-11T05:23:27.230Z,100176.80
2019-02-11T05:25:56.020Z,100175.35
2019-02-11T05:28:24.854Z,100180.36
2019-02-11T05:30:53.742Z,100182.04
2019-02-11T05:33:22.537Z,100191.36
2019-02-11T05:35:51.190Z,100189.11
2019-02-11T05:38:20.012Z,100198.66
2019-02-11T05:40:48.795Z,100191.72
2019-02-11T05:43:17.607Z,100189.35
2019-02-11T05:45:46.474Z,100192.44
2019-02-11T05:48:16.967Z,100192.91
2019-02-11T05:50:45.856Z,100186.59
2019-02-11T05:53:14.543Z,100195.20
2019-02-11T05:55:43.627Z,100196.98
2019-02-11T05:58:12.256Z,100199.02
2019-02-11T06:00:41.124Z,100207.50
2019-02-11T06:03:09.911Z,100211.81
2019-02-11T06:05:38.732Z,100208.92
2019-02-11T06:08:07.566Z,100215.28
2019-02-11T06:10:36.347Z,100223.99
2019-02-11T06:13:05.117Z,100228.62
2019-02-11T06:15:33.944Z,100238.81
2019-02-11T06:18:02.731Z,100237.14
2019-02-11T06:20:31.526Z,100241.09
2019-02-11T06:23:00.301Z,100239.41
2019-02-11T06:25:29.265Z,100248.96
2019-02-11T06:27:57.976Z,100255.66
2019-02-11T06:30:26.664Z,100254.84
2019-02-11T06:32:55.526Z,100263.18
2019-02-11T06:35:24.335Z,100270.84
2019-02-11T06:37:53.087Z,100278.14
2019-02-11T06:40:21.922Z,100291.77
2019-02-11T06:42:50.697Z,100302.53
2019-02-11T06:45:21.122Z,100312.67
2019-02-11T06:47:49.929Z,100323.70
2019-02-11T06:50:18.312Z,100335.50
2019-02-11T06:52:47.144Z,100331.95
2019-02-11T06:55:15.950Z,100340.66
2019-02-11T06:57:44.590Z,100344.61
2019-02-11T07:00:15.003Z,100356.33
2019-02-11T07:02:43.793Z,100355.96
2019-02-11T07:05:12.298Z,100365.53
2019-02-11T07:07:41.023Z,100363.75
2019-02-11T07:10:12.835Z,100375.33
2019-02-11T07:12:42.344Z,100381.41
2019-02-11T07:15:21.296Z,100392.54
2019-02-11T07:17:43.899Z,100398.66
2019-02-11T07:20:12.775Z,100404.05
2019-02-11T07:22:41.742Z,100410.00
2019-02-11T07:25:10.527Z,100412.63
2019-02-11T07:27:39.314Z,100423.12
2019-02-11T07:30:10.805Z,100423.15
2019-02-11T07:32:39.694Z,100435.85
2019-02-11T07:35:08.587Z,100437.73
2019-02-11T07:37:37.072Z,100441.81
2019-02-11T07:40:12.488Z,100449.78
2019-02-11T07:42:43.024Z,100456.09
2019-02-11T07:45:29.833Z,100464.34
2019-02-11T07:47:53.252Z,100472.18
2019-02-11T07:50:22.123Z,100483.64
2019-02-11T07:52:50.570Z,100487.16
2019-02-11T07:55:19.075Z,100487.69
2019-02-11T07:57:47.494Z,100488.55
2019-02-11T08:00:16.001Z,100492.63
2019-02-11T08:02:44.482Z,100501.00
2019-02-11T08:05:13.603Z,100510.83
2019-02-11T08:07:42.298Z,100516.16
2019-02-11T08:10:11.256Z,100526.14
2019-02-11T08:12:39.652Z,100532.56
2019-02-11T08:15:09.678Z,100533.13
2019-02-11T08:17:38.294Z,100539.98
2019-02-11T08:20:09.168Z,100546.61
2019-02-11T08:22:37.753Z,100551.83
2019-02-11T08:25:06.592Z,100556.88
2019-02-11T08:27:35.454Z,100558.41
2019-02-11T08:30:11.326Z,100565.25
2019-02-11T08:32:39.962Z,100566.09
2019-02-11T08:35:08.898Z,100571.52
2019-02-11T08:37:37.353Z,100596.42
2019-02-11T08:40:08.246Z,100590.20
2019-02-11T08:42:36.678Z,100599.78
2019-02-11T08:45:07.646Z,100604.33
2019-02-11T08:47:36.126Z,100612.25
2019-02-11T08:50:06.957Z,100609.14
2019-02-11T08:52:35.442Z,100622.66
2019-02-11T08:55:04.130Z,100629.49
2019-02-11T08:57:33.678Z,100637.17
2019-02-11T09:00:02.084Z,100639.58
2019-02-11T09:02:30.766Z,100646.63
2019-02-11T09:04:59.632Z,100644.22
2019-02-11T09:07:28.081Z,100649.59
2019-02-11T09:09:57.113Z,100648.00
2019-02-11T09:12:26.147Z,100649.95
2019-02-11T09:14:55.161Z,100651.86
2019-02-11T09:17:23.842Z,100660.23
2019-02-11T09:19:52.266Z,100660.19
2019-02-11T09:22:20.702Z,100664.53
2019-02-11T09:24:49.227Z,100673.06
2019-02-11T09:27:17.934Z,100669.41
2019-02-11T09:29:46.518Z,100681.00
2019-02-11T09:32:15.132Z,100686.16
2019-02-11T09:34:43.688Z,100689.36
2019-02-11T09:37:12.370Z,100696.84
2019-02-11T09:39:40.886Z,100706.18
2019-02-11T09:42:09.274Z,100707.20
2019-02-11T09:44:38.230Z,100706.00
2019-02-11T09:47:07.297Z,100715.38
2019-02-11T09:49:35.890Z,100725.98
2019-02-11T09:52:05.280Z,100732.39
2019-02-11T09:54:33.775Z,100741.89
2019-02-11T09:57:02.213Z,100752.81
2019-02-11T09:59:31.484Z,100748.75
2019-02-11T10:01:59.888Z,100756.77
2019-02-11T10:04:28.459Z,100756.55
2019-02-11T10:06:57.100Z,100762.53
2019-02-11T10:09:25.552Z,100764.23
2019-02-11T10:11:54.090Z,100775.83
2019-02-11T10:14:22.864Z,100768.98
2019-02-11T10:16:51.261Z,100781.80
2019-02-11T10:19:19.850Z,100786.86
2019-02-11T10:21:49.577Z,100802.67
2019-02-11T10:24:18.059Z,100804.80
2019-02-11T10:26:47.214Z,100810.00
2019-02-11T10:29:16.182Z,100811.09
2019-02-11T10:31:44.604Z,100809.54
2019-02-11T10:34:13.166Z,100823.22
2019-02-11T10:36:41.780Z,100832.44
2019-02-11T10:39:10.694Z,100829.56
2019-02-11T10:41:39.665Z,100832.57
2019-02-11T10:44:08.470Z,100835.94
2019-02-11T10:46:36.919Z,100836.87
2019-02-11T10:49:05.574Z,100833.05
2019-02-11T10:51:34.591Z,100834.48
2019-02-11T10:54:03.457Z,100837.98
2019-02-11T10:56:32.306Z,100826.66
2019-02-11T10:59:01.222Z,100822.95
2019-02-11T11:01:30.136Z,100826.87
2019-02-11T11:03:59.270Z,100831.95
2019-02-11T11:06:27.666Z,100838.83
2019-02-11T11:08:56.468Z,100841.15
2019-02-11T11:11:25.490Z,100844.94
2019-02-11T11:13:54.276Z,100859.14
2019-02-11T11:16:29.410Z,100856.33
2019-02-11T11:18:53.646Z,100855.41
2019-02-11T11:21:22.531Z,100853.97
2019-02-11T11:23:53.124Z,100855.94
2019-02-11T11:26:22.114Z,100859.17
2019-02-11T11:28:51.151Z,100865.89
2019-02-11T11:31:20.252Z,100861.92
2019-02-11T11:33:48.845Z,100873.17
2019-02-11T11:36:18.077Z,100859.50
2019-02-11T11:38:47.762Z,100869.50
2019-02-11T11:41:16.538Z,100871.06
2019-02-11T11:43:45.499Z,100872.73
2019-02-11T11:46:14.496Z,100875.86
2019-02-11T11:48:43.308Z,100879.95
2019-02-11T11:51:12.395Z,100884.42
2019-02-11T11:53:41.354Z,100900.86
2019-02-11T11:56:10.286Z,100898.94
2019-02-11T11:58:39.210Z,100900.98
2019-02-11T12:01:08.270Z,100900.86
2019-02-11T12:03:37.116Z,100909.14
2019-02-11T12:06:05.599Z,100899.53
2019-02-11T12:08:34.342Z,100900.98
2019-02-11T12:11:03.315Z,100905.53
2019-02-11T12:13:32.138Z,100900.50
2019-02-11T12:16:01.142Z,100905.05
2019-02-11T12:18:30.022Z,100913.23
2019-02-11T12:20:59.007Z,100916.56
2019-02-11T12:23:27.463Z,100912.25
2019-02-11T12:25:56.517Z,100917.17
2019-02-11T12:28:25.524Z,100916.17
2019-02-11T12:30:54.630Z,100923.89
2019-02-11T12:33:23.347Z,100916.92
2019-02-11T12:35:52.398Z,100912.73
2019-02-11T12:38:21.394Z,100921.84
2019-02-11T12:40:50.443Z,100914.23
2019-02-11T12:43:19.432Z,100920.60
2019-02-11T12:45:48.441Z,100921.72
2019-02-11T12:48:17.425Z,100928.54
2019-02-11T12:50:46.380Z,100939.39
2019-02-11T12:53:15.426Z,100939.63
2019-02-11T12:55:44.477Z,100938.66
2019-02-11T12:58:13.294Z,100953.53
2019-02-11T13:00:42.302Z,100952.94
2019-02-11T13:03:11.377Z,100961.23
2019-02-11T13:05:44.982Z,100969.19
2019-02-11T13:08:10.394Z,100965.09
2019-02-11T13:10:39.486Z,100966.91
2019-02-11T13:13:08.604Z,100969.67
2019-02-11T13:15:59.030Z,100965.38
2019-02-11T13:18:08.625Z,100977.45
2019-02-11T13:20:37.404Z,100977.41
2019-02-11T13:23:06.331Z,100965.98
2019-02-11T13:25:35.413Z,100955.97
2019-02-11T13:28:04.432Z,100963.83
2019-02-11T13:30:33.506Z,100969.36
2019-02-11T13:33:02.478Z,100971.98
2019-02-11T13:35:31.475Z,100974.09
2019-02-11T13:37:59.941Z,100982.22
2019-02-11T13:40:28.740Z,100977.38
2019-02-11T13:42:57.275Z,100991.47
2019-02-11T13:45:26.295Z,100986.48
2019-02-11T13:47:58.187Z,100995.87
2019-02-11T13:50:27.100Z,100999.78
2019-02-11T13:52:56.089Z,101007.55
2019-02-11T13:55:30.031Z,101010.11
2019-02-11T13:57:55.875Z,101019.00
2019-02-11T14:00:27.609Z,101021.13
2019-02-11T14:03:00.523Z,101032.19
2019-02-11T14:05:30.754Z,101032.63
2019-02-11T14:08:01.514Z,101048.66
2019-02-11T14:10:30.879Z,101060.75
2019-02-11T14:12:59.995Z,101066.16
2019-02-11T14:15:29.128Z,101079.48
2019-02-11T14:18:11.675Z,101079.91
2019-02-11T14:20:36.582Z,101088.34
2019-02-11T14:23:06.041Z,101084.00
2019-02-11T14:25:43.878Z,101084.48
2019-02-11T14:28:05.519Z,101086.52
2019-02-11T14:30:33.968Z,101088.57
2019-02-11T14:33:02.578Z,101091.82
2019-02-11T14:35:31.040Z,101087.27
2019-02-11T14:38:02.363Z,101087.73
2019-02-11T14:40:30.310Z,101090.76
2019-02-11T14:42:58.817Z,101103.73
2019-02-11T14:45:27.337Z,101095.30
2019-02-11T14:47:56.362Z,101097.71
2019-02-11T14:50:24.760Z,101104.92
2019-02-11T14:52:53.592Z,101108.77
2019-02-11T14:55:22.070Z,101124.81
2019-02-11T14:57:51.068Z,101125.34
2019-02-11T15:00:21.452Z,101123.80
2019-02-11T15:02:50.001Z,101128.23
2019-02-11T15:05:19.436Z,101122.95
2019-02-11T15:07:48.600Z,101119.10
2019-02-11T15:10:19.546Z,101131.70
2019-02-11T15:12:48.360Z,101139.66
2019-02-11T15:15:16.764Z,101139.63
2019-02-11T15:17:46.788Z,101141.67
2019-02-11T15:20:16.944Z,101144.34
2019-02-11T15:22:45.372Z,101142.66
2019-02-11T15:25:18.780Z,101157.00
2019-02-11T15:27:47.282Z,101161.73
2019-02-11T15:30:18.118Z,101178.20
2019-02-11T15:32:47.130Z,101168.89
2019-02-11T15:35:15.705Z,101172.92
2019-02-11T15:37:44.105Z,101181.14
2019-02-11T15:40:18.679Z,101184.66
2019-02-11T15:42:47.742Z,101189.66
2019-02-11T15:45:16.197Z,101195.05
2019-02-11T15:47:45.545Z,101207.20
2019-02-11T15:50:16.635Z,101213.54
2019-02-11T15:52:45.085Z,101210.05
2019-02-11T15:55:16.281Z,101218.93
2019-02-11T15:57:44.761Z,101218.14
2019-02-11T16:00:19.800Z,101227.06
2019-02-11T16:02:48.426Z,101227.55
2019-02-11T16:05:16.992Z,101225.22
2019-02-11T16:07:46.240Z,101228.27
2019-02-11T16:10:20.733Z,101235.83
2019-02-11T16:12:49.862Z,101243.97
2019-02-11T16:15:19.375Z,101250.94
2019-02-11T16:17:48.074Z,101243.11
2019-02-11T16:20:16.829Z,101255.39
2019-02-11T16:22:45.310Z,101258.30
2019-02-11T16:25:15.430Z,101267.64
2019-02-11T16:27:44.037Z,101270.45
2019-02-11T16:30:14.627Z,101263.23
2019-02-11T16:32:43.699Z,101271.48
2019-02-11T16:35:13.940Z,101268.48
2019-02-11T16:37:43.033Z,101279.06
2019-02-11T16:40:14.262Z,101283.19
2019-02-11T16:42:43.198Z,101285.13
2019-02-11T16:45:11.890Z,101300.27
2019-02-11T16:47:40.322Z,101304.78
2019-02-11T16:50:11.286Z,101298.95
2019-02-11T16:52:39.679Z,101308.75
2019-02-11T16:55:09.968Z,101308.98
2019-02-11T16:57:38.492Z,101313.29
2019-02-11T17:00:19.681Z,101318.13
2019-02-11T17:02:48.305Z,101319.78
2019-02-11T17:05:17.505Z,101321.34
2019-02-11T17:07:46.171Z,101328.66
2019-02-11T17:10:15.483Z,101331.22
2019-02-11T17:12:43.954Z,101337.47
2019-02-11T17:15:20.800Z,101341.23
2019-02-11T17:17:49.463Z,101351.46
2019-02-11T17:20:20.113Z,101360.16
2019-02-11T17:22:49.319Z,101363.72
2019-02-11T17:25:17.917Z,101380.00
2019-02-11T17:27:46.949Z,101393.09
2019-02-11T17:30:21.581Z,101398.81
2019-02-11T17:32:50.413Z,101396.98
2019-02-11T17:35:19.502Z,101405.38
2019-02-11T17:37:48.042Z,101419.56
2019-02-11T17:40:17.105Z,101418.99
2019-02-11T17:42:45.644Z,101426.16
2019-02-11T17:45:26.692Z,101431.62
2019-02-11T17:47:55.244Z,101437.27
2019-02-11T17:50:23.755Z,101455.44
2019-02-11T17:52:55.674Z,101462.44
2019-02-11T17:55:24.824Z,101460.48
2019-02-11T17:57:53.716Z,101459.80
2019-02-11T18:00:30.381Z,101472.90
2019-02-11T18:03:01.091Z,101479.22
2019-02-11T18:05:30.897Z,101494.36
2019-02-11T18:07:59.277Z,101495.01
2019-02-11T18:10:28.250Z,101522.02
2019-02-11T18:12:57.038Z,101535.96
2019-02-11T18:15:26.043Z,101541.86
2019-02-11T18:17:54.494Z,101549.92
2019-02-11T18:20:24.722Z,101541.98
2019-02-11T18:22:53.370Z,101548.80
2019-02-11T18:25:22.278Z,101550.69
2019-02-11T18:27:51.371Z,101560.14
2019-02-11T18:30:20.111Z,101573.33
2019-02-11T18:32:49.277Z,101571.68
2019-02-11T18:35:20.321Z,101570.29
2019-02-11T18:37:49.342Z,101569.83
2019-02-11T18:40:18.423Z,101568.69
2019-02-11T18:42:47.325Z,101577.31
2019-02-11T18:45:17.214Z,101580.15
2019-02-11T18:47:46.297Z,101581.47
2019-02-11T18:50:16.498Z,101595.05
2019-02-11T18:52:45.336Z,101597.61
2019-02-11T18:55:20.129Z,101604.94
2019-02-11T18:57:48.526Z,101608.16
2019-02-11T19:00:21.340Z,101611.55
2019-02-11T19:02:50.221Z,101621.05
2019-02-11T19:05:19.372Z,101627.83
2019-02-11T19:07:48.214Z,101630.30
2019-02-11T19:10:20.524Z,101645.52
2019-02-11T19:12:49.443Z,101657.00
2019-02-11T19:15:19.447Z,101665.08
2019-02-11T19:17:48.155Z,101665.97
2019-02-11T19:20:17.836Z,101672.30
2019-02-11T19:22:46.978Z,101673.99
2019-02-11T19:25:15.613Z,101675.78
2019-02-11T19:27:44.109Z,101677.10
2019-02-11T19:30:16.541Z,101680.88
2019-02-11T19:32:45.562Z,101677.09
2019-02-11T19:35:14.423Z,101689.63
2019-02-11T19:37:43.403Z,101687.16
2019-02-11T19:40:14.279Z,101686.69
2019-02-11T19:42:42.824Z,101687.77
2019-02-11T19:45:13.821Z,101684.44
2019-02-11T19:47:44.386Z,101680.66
2019-02-11T19:50:15.227Z,101676.69
2019-02-11T19:52:46.670Z,101681.18
2019-02-11T19:55:17.585Z,101683.84
2019-02-11T19:57:46.258Z,101688.39
2019-02-11T20:00:18.777Z,101697.42
2019-02-11T20:03:08.155Z,101705.11
2019-02-11T20:05:36.937Z,101711.59
2019-02-11T20:08:05.713Z,101722.30
2019-02-11T20:10:34.827Z,101729.38
2019-02-11T20:13:03.976Z,101733.20
2019-02-11T20:15:37.897Z,101739.73
2019-02-11T20:18:07.115Z,101744.07
2019-02-11T20:20:36.965Z,101750.72
2019-02-11T20:23:05.958Z,101762.48
2019-02-11T20:25:34.951Z,101763.74
2019-02-11T20:28:03.707Z,101764.95
2019-02-11T20:30:32.971Z,101768.68
2019-02-11T20:33:01.648Z,101774.55
2019-02-11T20:35:30.649Z,101785.58
2019-02-11T20:37:59.605Z,101777.82
2019-02-11T20:40:29.995Z,101769.34
2019-02-11T20:42:58.630Z,101772.89
2019-02-11T20:45:28.727Z,101769.05
2019-02-11T20:47:57.291Z,101763.25
2019-02-11T20:50:26.073Z,101758.07
2019-02-11T20:52:54.973Z,101755.05
2019-02-11T20:55:23.823Z,101753.06
2019-02-11T20:57:58.787Z,101752.33
2019-02-11T21:00:27.751Z,101757.20
2019-02-11T21:02:56.294Z,101750.33
2019-02-11T21:05:25.003Z,101761.30
2019-02-11T21:07:53.989Z,101765.02
2019-02-11T21:10:24.340Z,101769.56
2019-02-11T21:12:52.859Z,101765.02
2019-02-11T21:15:21.334Z,101761.82
2019-02-11T21:17:50.938Z,101756.57
2019-02-11T21:20:31.636Z,101746.64
2019-02-11T21:23:00.288Z,101750.19
2019-02-11T21:25:29.181Z,101758.52
2019-02-11T21:27:58.043Z,101777.69
2019-02-11T21:30:27.011Z,101783.47
2019-02-11T21:32:55.829Z,101782.66
2019-02-11T21:35:24.914Z,101784.36
2019-02-11T21:37:53.759Z,101796.31
2019-02-11T21:40:22.611Z,101797.18
2019-02-11T21:42:51.515Z,101808.53
2019-02-11T21:45:20.606Z,101813.10
2019-02-11T21:47:49.711Z,101811.80
2019-02-11T21:50:26.357Z,101813.94
2019-02-11T21:52:50.759Z,101823.11
2019-02-11T21:55:25.049Z,101840.95
2019-02-11T21:57:53.940Z,101851.78
2019-02-11T22:00:23.821Z,101865.30
2019-02-11T22:02:53.175Z,101863.20
2019-02-11T22:05:21.562Z,101873.02
2019-02-11T22:07:50.557Z,101882.14
2019-02-11T22:10:21.228Z,101878.93
2019-02-11T22:12:49.837Z,101891.92
2019-02-11T22:15:18.241Z,101886.30
2019-02-11T22:17:47.177Z,101894.05
2019-02-11T22:20:21.034Z,101887.37
2019-02-11T22:22:49.967Z,101898.00
2019-02-11T22:25:18.890Z,101890.41
2019-02-11T22:27:47.844Z,101894.44
2019-02-11T22:30:19.567Z,101893.38
2019-02-11T22:32:48.660Z,101896.77
2019-02-11T22:35:17.627Z,101900.54
2019-02-11T22:37:47.738Z,101905.56
2019-02-11T22:40:16.734Z,101905.56
2019-02-11T22:42:45.863Z,101914.35
2019-02-11T22:45:22.257Z,101916.84
2019-02-11T22:47:50.679Z,101915.31
2019-02-11T22:50:19.586Z,101922.33
2019-02-11T22:52:48.179Z,101925.18
2019-02-11T22:55:16.923Z,101927.08
2019-02-11T22:57:45.865Z,101921.37
2019-02-11T23:00:25.017Z,101929.31
2019-02-11T23:02:53.659Z,101936.48
2019-02-11T23:05:22.109Z,101933.24
2019-02-11T23:07:50.791Z,101934.73
2019-02-11T23:10:19.721Z,101940.77
2019-02-11T23:12:48.472Z,101948.13
2019-02-11T23:15:17.367Z,101944.84
2019-02-11T23:17:46.636Z,101944.05
2019-02-11T23:20:15.305Z,101955.33
2019-02-11T23:22:44.091Z,101963.99
2019-02-11T23:25:13.853Z,101975.67
2019-02-11T23:27:42.823Z,101981.22
2019-02-11T23:30:13.444Z,101983.78
2019-02-11T23:32:43.215Z,101990.49
2019-02-11T23:35:12.104Z,101998.27
2019-02-11T23:37:40.957Z,101997.05
2019-02-11T23:40:10.936Z,102000.44
2019-02-11T23:42:39.746Z,101999.80
2019-02-11T23:45:10.332Z,102000.07
2019-02-11T23:47:39.267Z,102008.45
2019-02-11T23:50:10.157Z,102014.50
2019-02-11T23:52:39.100Z,102008.24
2019-02-11T23:55:09.355Z,102011.88
2019-02-11T23:57:37.890Z,102009.63
